createdAt,value
2017-12-19T00:01:06.459Z,3.20
2017-12-19T00:03:34.037Z,3.20
2017-12-19T00:06:01.710Z,3.20
2017-12-19T00:08:30.046Z,3.20
2017-12-19T00:10:57.594Z,3.10
2017-12-19T00:13:25.191Z,3.10
2017-12-19T00:15:52.784Z,3.10
2017-12-19T00:18:21.118Z,3.00
2017-12-19T00:20:49.433Z,3.00
2017-12-19T00:23:17.777Z,3.10
2017-12-19T00:25:46.202Z,3.10
2017-12-19T00:28:14.547Z,3.10
2017-12-19T00:30:42.112Z,3.00
2017-12-19T00:33:09.695Z,3.00
2017-12-19T00:35:38.007Z,3.00
2017-12-19T00:38:05.753Z,3.00
2017-12-19T00:40:33.314Z,3.00
2017-12-19T00:43:00.941Z,3.10
2017-12-19T00:45:28.564Z,3.00
2017-12-19T00:47:56.122Z,3.00
2017-12-19T00:50:23.709Z,3.00
2017-12-19T00:52:51.325Z,3.00
2017-12-19T00:55:18.908Z,3.00
2017-12-19T00:57:47.066Z,2.90
2017-12-19T01:00:14.641Z,2.90
2017-12-19T01:02:42.214Z,2.90
2017-12-19T01:05:09.798Z,3.00
2017-12-19T01:07:37.358Z,2.90
2017-12-19T01:10:04.945Z,2.90
2017-12-19T01:12:33.353Z,2.90
2017-12-19T01:15:00.983Z,3.00
2017-12-19T01:17:29.313Z,3.00
2017-12-19T01:19:56.878Z,3.00
2017-12-19T01:22:24.482Z,3.10
2017-12-19T01:24:52.791Z,3.00
2017-12-19T01:27:20.366Z,3.00
2017-12-19T01:29:47.932Z,3.00
2017-12-19T01:32:15.589Z,3.00
2017-12-19T01:34:43.512Z,3.00
2017-12-19T01:37:11.988Z,3.00
2017-12-19T01:39:40.313Z,3.00
2017-12-19T01:42:07.869Z,3.00
2017-12-19T01:44:35.464Z,3.00
2017-12-19T01:47:03.018Z,3.00
2017-12-19T01:49:30.614Z,2.90
2017-12-19T01:51:59.128Z,3.00
2017-12-19T01:54:26.694Z,3.00
2017-12-19T01:56:54.256Z,3.00
2017-12-19T01:59:21.826Z,3.00
2017-12-19T02:01:49.497Z,3.00
2017-12-19T02:04:17.095Z,3.00
2017-12-19T02:06:45.987Z,3.10
2017-12-19T02:09:13.578Z,3.10
2017-12-19T02:11:41.139Z,3.10
2017-12-19T02:14:08.690Z,3.10
2017-12-19T02:16:36.257Z,3.20
2017-12-19T02:19:03.817Z,3.20
2017-12-19T02:21:31.392Z,3.20
2017-12-19T02:23:58.933Z,3.20
2017-12-19T02:26:26.481Z,3.20
2017-12-19T02:28:54.827Z,3.30
2017-12-19T02:31:22.870Z,3.20
2017-12-19T02:33:50.794Z,3.30
2017-12-19T02:36:18.371Z,3.30
2017-12-19T02:38:46.689Z,3.30
2017-12-19T02:41:14.282Z,3.30
2017-12-19T02:43:41.900Z,3.30
2017-12-19T02:46:10.237Z,3.30
2017-12-19T02:48:38.586Z,3.20
2017-12-19T02:51:06.153Z,3.30
2017-12-19T02:53:33.718Z,3.20
2017-12-19T02:56:01.257Z,3.20
2017-12-19T02:58:28.810Z,3.20
2017-12-19T03:00:56.393Z,3.20
2017-12-19T03:03:23.974Z,3.20
2017-12-19T03:05:52.299Z,3.20
2017-12-19T03:08:19.871Z,3.10
2017-12-19T03:10:47.440Z,3.10
2017-12-19T03:13:14.998Z,3.10
2017-12-19T03:15:42.557Z,3.10
2017-12-19T03:18:10.163Z,3.10
2017-12-19T03:20:38.528Z,3.10
2017-12-19T03:23:06.079Z,3.10
2017-12-19T03:25:33.630Z,3.20
2017-12-19T03:28:01.169Z,3.20
2017-12-19T03:30:28.748Z,3.10
2017-12-19T03:32:56.289Z,3.10
2017-12-19T03:35:23.861Z,3.10
2017-12-19T03:37:51.529Z,3.10
2017-12-19T03:40:20.001Z,3.00
2017-12-19T03:42:47.569Z,3.00
2017-12-19T03:45:15.121Z,3.00
2017-12-19T03:47:42.694Z,3.10
2017-12-19T03:50:10.245Z,3.10
2017-12-19T03:52:37.809Z,3.10
2017-12-19T03:55:05.363Z,3.10
2017-12-19T03:57:32.969Z,3.10
2017-12-19T04:00:00.489Z,3.10
2017-12-19T04:02:28.077Z,3.10
2017-12-19T04:04:55.624Z,3.10
2017-12-19T04:07:23.179Z,3.10
2017-12-19T04:09:50.744Z,3.10
2017-12-19T04:12:18.278Z,3.10
2017-12-19T04:14:45.847Z,3.20
2017-12-19T04:17:13.401Z,3.10
2017-12-19T04:19:40.982Z,3.10
2017-12-19T04:22:08.529Z,3.10
2017-12-19T04:24:36.078Z,3.10
2017-12-19T04:27:03.801Z,3.10
2017-12-19T04:29:32.150Z,3.10
2017-12-19T04:31:59.689Z,3.10
2017-12-19T04:34:27.273Z,3.10
2017-12-19T04:36:54.810Z,3.10
2017-12-19T04:39:22.458Z,3.10
2017-12-19T04:41:50.017Z,3.10
2017-12-19T04:44:17.697Z,3.10
2017-12-19T04:46:45.278Z,3.10
2017-12-19T04:49:12.835Z,3.10
2017-12-19T04:51:40.410Z,3.10
2017-12-19T04:54:07.955Z,3.10
2017-12-19T04:56:35.514Z,3.10
2017-12-19T04:59:03.062Z,3.00
2017-12-19T05:01:30.643Z,3.00
2017-12-19T05:03:58.202Z,3.00
2017-12-19T05:06:25.811Z,3.00
2017-12-19T05:08:53.394Z,3.10
2017-12-19T05:11:21.711Z,3.10
2017-12-19T05:13:49.266Z,3.10
2017-12-19T05:16:16.843Z,3.10
2017-12-19T05:18:44.405Z,3.20
2017-12-19T05:21:12.727Z,3.20
2017-12-19T05:23:40.379Z,3.20
2017-12-19T05:26:08.006Z,3.20
2017-12-19T05:28:35.594Z,3.20
2017-12-19T05:31:03.154Z,3.20
2017-12-19T05:33:30.729Z,3.20
2017-12-19T05:35:58.288Z,3.20
2017-12-19T05:38:25.899Z,3.30
2017-12-19T05:40:53.462Z,3.30
2017-12-19T05:43:21.091Z,3.30
2017-12-19T05:45:48.653Z,3.30
2017-12-19T05:48:16.230Z,3.30
2017-12-19T05:50:43.829Z,3.30
2017-12-19T05:53:12.150Z,3.40
2017-12-19T05:55:39.714Z,3.40
2017-12-19T05:58:07.268Z,3.40
2017-12-19T06:00:34.826Z,3.40
2017-12-19T06:03:02.411Z,3.40
2017-12-19T06:05:30.142Z,3.40
2017-12-19T06:07:57.731Z,3.40
2017-12-19T06:10:26.057Z,3.40
2017-12-19T06:12:54.424Z,3.40
2017-12-19T06:15:22.759Z,3.40
2017-12-19T06:17:50.337Z,3.40
2017-12-19T06:20:17.903Z,3.40
2017-12-19T06:22:45.456Z,3.40
2017-12-19T06:25:13.011Z,3.40
2017-12-19T06:27:40.591Z,3.40
2017-12-19T06:30:08.155Z,3.40
2017-12-19T06:32:35.750Z,3.40
2017-12-19T06:35:04.158Z,3.40
2017-12-19T06:37:31.735Z,3.40
2017-12-19T06:39:59.271Z,3.50
2017-12-19T06:42:26.859Z,3.50
2017-12-19T06:44:54.444Z,3.50
2017-12-19T06:47:28.499Z,3.50
2017-12-19T06:49:56.926Z,3.50
2017-12-19T06:52:25.302Z,3.50
2017-12-19T06:54:52.869Z,3.50
2017-12-19T06:57:20.413Z,3.60
2017-12-19T06:59:47.990Z,3.60
2017-12-19T07:02:15.537Z,3.60
2017-12-19T07:04:43.231Z,3.60
2017-12-19T07:07:11.562Z,3.60
2017-12-19T07:09:39.494Z,3.60
2017-12-19T07:12:07.039Z,3.60
2017-12-19T07:14:35.370Z,3.60
2017-12-19T07:17:02.945Z,3.60
2017-12-19T07:19:30.562Z,3.60
2017-12-19T07:21:58.105Z,3.60
2017-12-19T07:24:26.418Z,3.60
2017-12-19T07:26:53.996Z,3.60
2017-12-19T07:29:21.567Z,3.60
2017-12-19T07:31:49.172Z,3.60
2017-12-19T07:34:17.475Z,3.60
2017-12-19T07:36:45.822Z,3.60
2017-12-19T07:39:14.131Z,3.60
2017-12-19T07:41:41.691Z,3.60
2017-12-19T07:44:09.254Z,3.60
2017-12-19T07:46:36.798Z,3.60
2017-12-19T07:49:04.398Z,3.60
2017-12-19T07:51:32.009Z,3.60
2017-12-19T07:54:00.358Z,3.60
2017-12-19T07:56:27.934Z,3.60
2017-12-19T07:58:56.257Z,3.70
2017-12-19T08:01:24.009Z,3.70
2017-12-19T08:03:51.559Z,3.70
2017-12-19T08:06:19.155Z,3.70
2017-12-19T08:08:46.733Z,3.70
2017-12-19T08:11:14.310Z,3.70
2017-12-19T08:13:41.908Z,3.80
2017-12-19T08:16:09.502Z,3.80
2017-12-19T08:18:37.074Z,3.80
2017-12-19T08:21:04.688Z,3.80
2017-12-19T08:23:32.302Z,3.90
2017-12-19T08:25:59.929Z,3.90
2017-12-19T08:28:27.493Z,4.00
2017-12-19T08:30:55.082Z,4.00
2017-12-19T08:33:22.654Z,4.00
2017-12-19T08:35:50.244Z,4.00
2017-12-19T08:38:18.596Z,4.10
2017-12-19T08:40:46.182Z,4.10
2017-12-19T08:43:14.490Z,4.20
2017-12-19T08:45:42.070Z,4.20
2017-12-19T08:48:09.723Z,4.20
2017-12-19T08:50:37.303Z,4.20
2017-12-19T08:53:04.920Z,4.20
2017-12-19T08:55:33.246Z,4.30
2017-12-19T08:58:00.854Z,4.30
2017-12-19T09:00:29.170Z,4.40
2017-12-19T09:02:56.758Z,4.40
2017-12-19T09:05:24.345Z,4.40
2017-12-19T09:07:52.712Z,4.50
2017-12-19T09:10:20.357Z,4.50
2017-12-19T09:12:47.955Z,4.50
2017-12-19T09:15:16.300Z,4.60
2017-12-19T09:17:43.918Z,4.60
2017-12-19T09:20:11.523Z,4.70
2017-12-19T09:22:39.112Z,4.70
2017-12-19T09:25:07.461Z,4.70
2017-12-19T09:27:35.020Z,4.70
2017-12-19T09:30:02.617Z,4.80
2017-12-19T09:32:30.995Z,4.80
2017-12-19T09:34:59.338Z,4.90
2017-12-19T09:37:27.044Z,4.80
2017-12-19T09:39:55.451Z,4.90
2017-12-19T09:42:23.037Z,4.80
2017-12-19T09:44:50.696Z,4.90
2017-12-19T09:47:18.251Z,4.90
2017-12-19T09:49:45.840Z,4.80
2017-12-19T09:52:13.394Z,4.80
2017-12-19T09:54:40.964Z,4.80
2017-12-19T09:57:08.539Z,4.80
2017-12-19T09:59:36.854Z,4.80
2017-12-19T10:02:04.465Z,4.80
2017-12-19T10:04:32.045Z,4.80
2017-12-19T10:07:00.406Z,4.80
2017-12-19T10:09:27.962Z,4.80
2017-12-19T10:11:55.565Z,4.90
2017-12-19T10:14:23.120Z,4.90
2017-12-19T10:16:50.705Z,4.90
2017-12-19T10:19:18.335Z,5.00
2017-12-19T10:21:46.657Z,5.10
2017-12-19T10:24:14.235Z,5.10
2017-12-19T10:26:41.794Z,5.10
2017-12-19T10:29:09.377Z,5.10
2017-12-19T10:31:36.932Z,5.10
2017-12-19T10:34:04.496Z,5.10
2017-12-19T10:36:32.169Z,5.10
2017-12-19T10:39:00.517Z,5.10
2017-12-19T10:41:28.086Z,5.20
2017-12-19T10:43:55.656Z,5.20
2017-12-19T10:46:23.340Z,5.30
2017-12-19T10:48:51.694Z,5.30
2017-12-19T10:51:19.277Z,5.30
2017-12-19T10:53:47.618Z,5.30
2017-12-19T10:56:15.190Z,5.30
2017-12-19T10:58:42.757Z,5.30
2017-12-19T11:01:10.350Z,5.40
2017-12-19T11:03:37.934Z,5.40
2017-12-19T11:06:05.606Z,5.40
2017-12-19T11:08:33.245Z,5.40
2017-12-19T11:11:00.821Z,5.40
2017-12-19T11:13:28.414Z,5.40
2017-12-19T11:15:55.983Z,5.40
2017-12-19T11:18:23.530Z,5.50
2017-12-19T11:20:51.120Z,5.50
2017-12-19T11:23:19.434Z,5.60
2017-12-19T11:25:47.021Z,5.60
2017-12-19T11:28:14.679Z,5.60
2017-12-19T11:30:42.254Z,5.60
2017-12-19T11:33:09.821Z,5.60
2017-12-19T11:35:37.462Z,5.70
2017-12-19T11:38:05.005Z,5.70
2017-12-19T11:40:32.577Z,5.80
2017-12-19T11:43:00.917Z,5.80
2017-12-19T11:45:29.246Z,5.80
2017-12-19T11:47:56.837Z,5.80
2017-12-19T11:50:24.441Z,5.80
2017-12-19T11:52:52.018Z,5.90
2017-12-19T11:55:19.629Z,5.90
2017-12-19T11:57:47.972Z,5.90
2017-12-19T12:00:15.514Z,5.90
2017-12-19T12:02:43.125Z,5.90
2017-12-19T12:05:11.479Z,6.00
2017-12-19T12:07:39.471Z,6.00
2017-12-19T12:10:07.029Z,6.00
2017-12-19T12:12:34.661Z,6.00
2017-12-19T12:15:02.226Z,6.00
2017-12-19T12:17:29.826Z,6.00
2017-12-19T12:19:58.169Z,6.00
2017-12-19T12:22:25.769Z,6.00
2017-12-19T12:24:54.098Z,5.90
2017-12-19T12:27:24.241Z,5.90
2017-12-19T12:29:54.210Z,6.00
2017-12-19T12:32:22.095Z,6.00
2017-12-19T12:34:50.014Z,6.00
2017-12-19T12:37:17.570Z,6.10
2017-12-19T12:39:45.173Z,6.10
2017-12-19T12:42:13.494Z,6.10
2017-12-19T12:44:41.118Z,6.10
2017-12-19T12:47:08.670Z,6.10
2017-12-19T12:49:36.263Z,6.10
2017-12-19T12:52:03.833Z,6.20
2017-12-19T12:54:32.032Z,6.20
2017-12-19T12:56:59.657Z,6.30
2017-12-19T12:59:27.265Z,6.30
2017-12-19T13:01:54.899Z,6.40
2017-12-19T13:04:22.505Z,6.40
2017-12-19T13:06:50.860Z,6.40
2017-12-19T13:09:18.450Z,6.40
2017-12-19T13:11:46.035Z,6.40
2017-12-19T13:14:13.621Z,6.40
2017-12-19T13:16:41.175Z,6.40
2017-12-19T13:19:08.754Z,6.40
2017-12-19T13:21:36.362Z,6.40
2017-12-19T13:24:03.945Z,6.40
2017-12-19T13:26:31.545Z,6.40
2017-12-19T13:28:59.195Z,6.40
2017-12-19T13:31:26.809Z,6.40
2017-12-19T13:33:54.580Z,6.50
2017-12-19T13:36:22.170Z,6.50
2017-12-19T13:38:49.790Z,6.60
2017-12-19T13:41:17.397Z,6.60
2017-12-19T13:43:45.171Z,6.60
2017-12-19T13:46:12.771Z,6.60
2017-12-19T13:48:41.244Z,6.70
2017-12-19T13:51:11.906Z,6.70
2017-12-19T13:53:39.581Z,6.70
2017-12-19T13:56:07.162Z,6.70
2017-12-19T13:58:34.753Z,6.70
2017-12-19T14:01:03.082Z,6.70
2017-12-19T14:03:30.668Z,6.70
2017-12-19T14:05:58.245Z,6.70
2017-12-19T14:08:25.931Z,6.70
2017-12-19T14:10:54.363Z,6.60
2017-12-19T14:13:27.527Z,6.60
2017-12-19T14:15:56.157Z,6.50
2017-12-19T14:18:23.710Z,6.50
2017-12-19T14:20:51.306Z,6.40
2017-12-19T14:23:19.643Z,6.30
2017-12-19T14:25:47.345Z,6.30
2017-12-19T14:28:15.744Z,6.30
2017-12-19T14:30:43.529Z,6.30
2017-12-19T14:33:11.206Z,6.30
2017-12-19T14:35:38.793Z,6.30
2017-12-19T14:38:06.403Z,6.30
2017-12-19T14:40:34.010Z,6.30
2017-12-19T14:43:01.592Z,6.30
2017-12-19T14:45:29.942Z,6.30
2017-12-19T14:47:57.514Z,6.30
2017-12-19T14:50:25.084Z,6.30
2017-12-19T14:52:52.700Z,6.30
2017-12-19T14:55:20.509Z,6.20
2017-12-19T14:57:48.115Z,6.30
2017-12-19T15:00:15.712Z,6.30
2017-12-19T15:02:43.640Z,6.30
2017-12-19T15:05:11.238Z,6.20
2017-12-19T15:07:38.769Z,6.20
2017-12-19T15:10:06.467Z,6.20
2017-12-19T15:12:34.037Z,6.10
2017-12-19T15:15:01.646Z,6.20
2017-12-19T15:17:29.213Z,6.10
2017-12-19T15:19:56.813Z,6.10
2017-12-19T15:22:24.407Z,6.10
2017-12-19T15:24:52.827Z,6.00
2017-12-19T15:27:20.389Z,6.00
2017-12-19T15:29:47.984Z,6.00
2017-12-19T15:32:15.590Z,6.00
2017-12-19T15:34:47.323Z,5.90
2017-12-19T15:37:14.913Z,5.90
2017-12-19T15:39:46.002Z,5.90
2017-12-19T15:42:13.614Z,5.90
2017-12-19T15:44:48.010Z,5.90
2017-12-19T15:47:23.905Z,5.80
2017-12-19T15:49:53.503Z,5.80
2017-12-19T15:52:21.427Z,5.90
2017-12-19T15:54:52.713Z,5.80
2017-12-19T15:57:21.100Z,5.80
2017-12-19T15:59:52.448Z,5.80
2017-12-19T16:02:20.049Z,5.90
2017-12-19T16:04:47.670Z,5.90
2017-12-19T16:07:15.243Z,5.90
2017-12-19T16:09:42.832Z,5.90
2017-12-19T16:12:10.383Z,5.90
2017-12-19T16:14:37.989Z,5.90
2017-12-19T16:17:06.329Z,6.00
2017-12-19T16:19:33.914Z,6.00
2017-12-19T16:22:01.508Z,5.90
2017-12-19T16:24:29.854Z,6.00
2017-12-19T16:26:57.521Z,6.00
2017-12-19T16:29:25.096Z,6.00
2017-12-19T16:31:53.448Z,5.90
2017-12-19T16:34:21.041Z,5.90
2017-12-19T16:36:49.382Z,6.00
2017-12-19T16:39:18.371Z,6.00
2017-12-19T16:41:45.949Z,6.00
2017-12-19T16:44:13.520Z,6.00
2017-12-19T16:46:41.119Z,6.00
2017-12-19T16:49:08.771Z,6.00
2017-12-19T16:51:36.342Z,6.00
2017-12-19T16:54:04.759Z,6.00
2017-12-19T16:56:32.342Z,6.00
2017-12-19T16:58:59.911Z,6.00
2017-12-19T17:01:28.282Z,5.90
2017-12-19T17:03:55.836Z,6.00
2017-12-19T17:06:23.476Z,5.90
2017-12-19T17:08:51.042Z,5.90
2017-12-19T17:11:18.686Z,5.90
2017-12-19T17:13:46.353Z,5.90
2017-12-19T17:16:14.686Z,5.90
2017-12-19T17:19:01.712Z,5.90
2017-12-19T17:21:30.044Z,5.90
2017-12-19T17:23:57.662Z,5.80
2017-12-19T17:26:25.242Z,5.80
2017-12-19T17:28:52.859Z,5.80
2017-12-19T17:31:20.425Z,5.80
2017-12-19T17:33:48.861Z,5.70
2017-12-19T17:36:16.464Z,5.80
2017-12-19T17:38:44.855Z,5.70
2017-12-19T17:41:13.201Z,5.70
2017-12-19T17:43:40.946Z,5.70
2017-12-19T17:46:26.923Z,5.70
2017-12-19T17:48:54.489Z,5.70
2017-12-19T17:51:22.090Z,5.70
2017-12-19T17:53:49.665Z,5.70
2017-12-19T17:56:18.018Z,5.70
2017-12-19T17:58:45.621Z,5.70
2017-12-19T18:01:13.952Z,5.70
2017-12-19T18:03:41.637Z,5.70
2017-12-19T18:06:09.752Z,5.70
2017-12-19T18:08:38.423Z,5.70
2017-12-19T18:11:06.059Z,5.70
2017-12-19T18:13:33.628Z,5.70
2017-12-19T18:16:01.208Z,5.70
2017-12-19T18:18:29.564Z,5.70
2017-12-19T18:20:57.134Z,5.70
2017-12-19T18:23:25.518Z,5.70
2017-12-19T18:25:56.599Z,5.60
2017-12-19T18:28:24.270Z,5.60
2017-12-19T18:30:51.927Z,5.60
2017-12-19T18:33:19.493Z,5.70
2017-12-19T18:35:47.106Z,5.60
2017-12-19T18:38:15.487Z,5.60
2017-12-19T18:40:43.871Z,5.70
2017-12-19T18:43:12.235Z,5.60
2017-12-19T18:45:39.872Z,5.60
2017-12-19T18:48:07.605Z,5.70
2017-12-19T18:50:35.472Z,5.70
2017-12-19T18:53:03.235Z,5.70
2017-12-19T18:55:30.840Z,5.70
2017-12-19T18:57:58.642Z,5.70
2017-12-19T19:00:26.238Z,5.70
2017-12-19T19:02:53.826Z,5.60
2017-12-19T19:05:21.464Z,5.70
2017-12-19T19:07:49.826Z,5.70
2017-12-19T19:10:17.417Z,5.70
2017-12-19T19:12:45.776Z,5.60
2017-12-19T19:15:15.235Z,5.60
2017-12-19T19:17:42.910Z,5.60
2017-12-19T19:20:11.257Z,5.60
2017-12-19T19:22:38.859Z,5.60
2017-12-19T19:25:07.302Z,5.60
2017-12-19T19:27:34.970Z,5.60
2017-12-19T19:30:02.693Z,5.60
2017-12-19T19:32:30.297Z,5.60
2017-12-19T19:34:57.947Z,5.50
2017-12-19T19:37:25.534Z,5.60
2017-12-19T19:39:53.326Z,5.50
2017-12-19T19:42:20.932Z,5.50
2017-12-19T19:44:48.518Z,5.50
2017-12-19T19:47:16.186Z,5.50
2017-12-19T19:49:44.613Z,5.50
2017-12-19T19:52:12.227Z,5.50
2017-12-19T19:54:40.626Z,5.50
2017-12-19T19:57:09.027Z,5.60
2017-12-19T19:59:36.623Z,5.50
2017-12-19T20:02:04.245Z,5.50
2017-12-19T20:04:31.936Z,5.60
2017-12-19T20:06:59.592Z,5.60
2017-12-19T20:09:27.279Z,5.50
2017-12-19T20:11:54.864Z,5.60
2017-12-19T20:14:23.232Z,5.60
2017-12-19T20:16:50.842Z,5.60
2017-12-19T20:19:18.444Z,5.60
2017-12-19T20:21:46.049Z,5.50
2017-12-19T20:24:13.649Z,5.60
2017-12-19T20:26:41.253Z,5.60
2017-12-19T20:29:09.627Z,5.60
2017-12-19T20:31:37.978Z,5.60
2017-12-19T20:34:05.564Z,5.60
2017-12-19T20:36:33.959Z,5.60
2017-12-19T20:39:02.380Z,5.60
2017-12-19T20:41:29.990Z,5.60
2017-12-19T20:43:57.582Z,5.60
2017-12-19T20:46:25.264Z,5.50
2017-12-19T20:48:52.936Z,5.50
2017-12-19T20:51:20.514Z,5.50
2017-12-19T20:53:48.185Z,5.50
2017-12-19T20:56:15.802Z,5.50
2017-12-19T20:58:43.415Z,5.50
2017-12-19T21:01:11.039Z,5.50
2017-12-19T21:03:38.627Z,5.50
2017-12-19T21:06:06.344Z,5.50
2017-12-19T21:08:33.955Z,5.50
2017-12-19T21:11:01.695Z,5.50
2017-12-19T21:13:29.438Z,5.50
2017-12-19T21:15:57.268Z,5.50
2017-12-19T21:18:25.818Z,5.50
2017-12-19T21:20:53.419Z,5.40
2017-12-19T21:23:22.559Z,5.50
2017-12-19T21:25:50.218Z,5.40
2017-12-19T21:28:17.897Z,5.40
2017-12-19T21:30:45.461Z,5.40
2017-12-19T21:33:13.046Z,5.40
2017-12-19T21:35:41.291Z,5.40
2017-12-19T21:38:09.134Z,5.40
2017-12-19T21:40:36.784Z,5.40
2017-12-19T21:43:05.153Z,5.40
2017-12-19T21:45:33.572Z,5.40
2017-12-19T21:48:01.158Z,5.30
2017-12-19T21:50:28.748Z,5.40
2017-12-19T21:52:56.313Z,5.40
2017-12-19T21:55:24.684Z,5.40
2017-12-19T21:57:53.079Z,5.40
2017-12-19T22:00:21.435Z,5.30
2017-12-19T22:02:49.130Z,5.30
2017-12-19T22:05:16.720Z,5.30
2017-12-19T22:07:45.070Z,5.30
2017-12-19T22:10:13.426Z,5.30
2017-12-19T22:12:41.769Z,5.30
2017-12-19T22:15:09.347Z,5.30
2017-12-19T22:17:36.966Z,5.30
2017-12-19T22:20:04.533Z,5.30
2017-12-19T22:22:32.134Z,5.30
2017-12-19T22:24:59.717Z,5.30
2017-12-19T22:27:28.168Z,5.30
2017-12-19T22:29:55.742Z,5.30
2017-12-19T22:32:23.321Z,5.30
2017-12-19T22:34:51.661Z,5.20
2017-12-19T22:37:19.221Z,5.20
2017-12-19T22:39:46.810Z,5.20
2017-12-19T22:42:15.245Z,5.20
2017-12-19T22:44:42.823Z,5.20
2017-12-19T22:47:10.409Z,5.20
2017-12-19T22:49:37.984Z,5.30
2017-12-19T22:52:06.342Z,5.30
2017-12-19T22:54:33.914Z,5.20
2017-12-19T22:57:01.574Z,5.30
2017-12-19T22:59:29.162Z,5.30
2017-12-19T23:01:57.580Z,5.30
2017-12-19T23:04:25.162Z,5.30
2017-12-19T23:06:52.742Z,5.30
2017-12-19T23:09:20.313Z,5.30
2017-12-19T23:11:48.844Z,5.40
2017-12-19T23:14:16.449Z,5.40
2017-12-19T23:16:44.019Z,5.40
2017-12-19T23:19:12.383Z,5.40
2017-12-19T23:21:39.953Z,5.40
2017-12-19T23:24:08.314Z,5.40
2017-12-19T23:26:35.887Z,5.40
2017-12-19T23:29:03.486Z,5.40
2017-12-19T23:31:31.174Z,5.40
2017-12-19T23:33:58.727Z,5.40
2017-12-19T23:36:26.326Z,5.30
2017-12-19T23:38:53.879Z,5.40
2017-12-19T23:41:21.463Z,5.30
2017-12-19T23:43:50.207Z,5.40
2017-12-19T23:46:18.578Z,5.30
2017-12-19T23:48:46.553Z,5.40
2017-12-19T23:51:14.149Z,5.40
2017-12-19T23:53:41.744Z,5.40
2017-12-19T23:56:10.069Z,5.40
2017-12-19T23:58:37.719Z,5.40
